KPDX

Portland International Airport

Portland, Oregon, USA
METAR KPDX 162353Z 11013KT 10SM FEW030 BKN060 OVC090 08/08 A2977 RMK AO2 RAE53 SLP079 P0003 60028 T00830078 10100 20078 51035
Observed Flight Rules
Dec-16 @ 23:53 UTC (48 minutes ago) Visual Flight Rules
Wind Visibility Clouds
110° at 13 knots 10 miles
  • Few at 3,000' AGL
  • Broken at 6,000' AGL
  • Overcast at 9,000' AGL
Temperatures Readings Precipitation
Current 8°C / 46°F
Dewpoint 8°C / 46°F
Humidity 100%
Altimeter 29.77" Hg
Pressure 1007.9 hPa
Elevation 7
Current Rain 0.03
METAR KPDX 162353Z 11013KT 10SM FEW030 BKN060 OVC090 08/08 A2977 RMK AO2 RAE53 SLP079 P0003 60028 T00830078 10100 20078 51035
Observed Flight Rules
Dec-16 @ 23:53 UTC
(48 minutes ago)
VFR
Wind Visibility
110° at 13 knots 10 miles
Clouds
  • Few at 3,000' AGL
  • Broken at 6,000' AGL
  • Overcast at 9,000' AGL
Temperature Dewpoint
8°C / 46°F 8°C / 46°F
Humidity Altimeter Pressure
100% 29.77" Hg 1007.9 hPa
Current Rain
0.03